Time;durP1;ratioP1;P1;durP2;ratioP2;P2;SDS_P1;SDS_P2;PMS_P1;PMS_P2;Temp;Humidity;BMP_temperature;BMP_pressure;BME280_temperature;BME280_humidity;BME280_pressure;Samples;Min_cycle;Max_cycle;Signal;HPM_P1;HPM_P2
2022/03/30 00:01:53;;;;;;;34.80;12.77;;;;;;;7.18;70.51;100688.81;5034065;28;20041;-86
2022/03/30 00:04:19;;;;;;;35.67;14.88;;;;;;;7.16;70.90;100691.59;5046809;28;20034;-85
2022/03/30 00:06:44;;;;;;;35.13;13.45;;;;;;;7.13;70.47;100690.88;5041629;28;20045;-84
2022/03/30 00:09:10;;;;;;;37.92;14.32;;;;;;;7.07;70.62;100691.28;5034050;28;20041;-85
2022/03/30 00:11:35;;;;;;;33.47;12.77;;;;;;;7.06;70.77;100694.94;5050049;28;20036;-85
2022/03/30 00:14:00;;;;;;;37.17;16.20;;;;;;;6.99;70.61;100686.31;5050138;28;20044;-86
2022/03/30 00:16:26;;;;;;;35.60;13.43;;;;;;;6.98;71.07;100698.09;5053354;28;20397;-87
2022/03/30 00:18:52;;;;;;;31.25;13.57;;;;;;;6.96;71.50;100696.47;5041355;28;20104;-85
2022/03/30 00:21:18;;;;;;;26.08;12.82;;;;;;;6.94;71.46;100699.25;5049185;28;20059;-87
2022/03/30 00:23:43;;;;;;;38.22;14.07;;;;;;;6.89;71.33;100698.66;5052481;28;20071;-85
2022/03/30 00:26:09;;;;;;;39.67;15.25;;;;;;;6.82;71.51;100691.88;5033981;28;20052;-86
2022/03/30 00:28:34;;;;;;;42.83;14.25;;;;;;;6.82;71.50;100686.47;5027871;28;20067;-86
2022/03/30 00:31:00;;;;;;;37.83;12.98;;;;;;;6.80;71.76;100685.69;5059319;28;20115;-86
2022/03/30 00:33:26;;;;;;;33.03;13.63;;;;;;;6.75;72.30;100674.25;5049272;28;20492;-86
2022/03/30 00:35:52;;;;;;;35.17;13.82;;;;;;;6.76;71.99;100674.19;5046220;28;20047;-84
2022/03/30 00:38:18;;;;;;;32.67;13.90;;;;;;;6.74;72.10;100673.41;5050855;28;20484;-85
2022/03/30 00:40:44;;;;;;;33.35;15.20;;;;;;;6.71;72.17;100668.16;5050723;28;20017;-85
2022/03/30 00:43:10;;;;;;;32.78;15.15;;;;;;;6.64;72.65;100666.81;5048775;28;20040;-85
2022/03/30 00:45:36;;;;;;;32.70;14.18;;;;;;;6.62;72.35;100684.91;5036332;28;20726;-85
2022/03/30 00:48:01;;;;;;;33.60;14.25;;;;;;;6.56;72.51;100683.47;5050038;28;20026;-86
2022/03/30 00:50:26;;;;;;;28.63;11.68;;;;;;;6.53;72.60;100688.19;5049669;28;20467;-84
2022/03/30 00:52:56;;;;;;;29.25;13.68;;;;;;;6.47;72.96;100684.00;5050677;28;20086;-86
2022/03/30 00:55:22;;;;;;;30.00;12.95;;;;;;;6.40;72.78;100677.22;5050356;28;20051;-87
2022/03/30 00:57:49;;;;;;;27.63;13.02;;;;;;;6.33;73.23;100684.78;5041478;28;20108;-89
2022/03/30 01:00:15;;;;;;;36.88;14.88;;;;;;;6.21;73.59;100673.84;5048008;28;20032;-86
2022/03/30 01:02:45;;;;;;;33.70;13.43;;;;;;;6.16;73.81;100678.63;5032950;28;20034;-85
2022/03/30 01:05:11;;;;;;;35.05;13.50;;;;;;;6.08;73.89;100677.22;5032439;28;20135;-88
2022/03/30 01:07:37;;;;;;;33.80;15.48;;;;;;;5.96;74.18;100661.69;5047684;28;20136;-85
2022/03/30 01:10:07;;;;;;;34.38;14.40;;;;;;;5.97;74.27;100676.97;5033436;28;20067;-86
2022/03/30 01:12:34;;;;;;;32.50;14.50;;;;;;;5.89;74.36;100661.16;5034005;28;20063;-86
2022/03/30 01:15:00;;;;;;;33.38;14.52;;;;;;;5.89;74.45;100660.28;5033911;28;20228;-85
2022/03/30 01:17:26;;;;;;;29.58;13.73;;;;;;;5.78;75.00;100650.09;5029676;28;20491;-86
2022/03/30 01:19:52;;;;;;;36.78;13.88;;;;;;;5.75;75.04;100655.66;5026583;28;20034;-86
2022/03/30 01:22:17;;;;;;;32.90;13.50;;;;;;;5.69;75.13;100658.72;5046622;28;20504;-85
2022/03/30 01:24:43;;;;;;;42.50;14.60;;;;;;;5.67;75.38;100657.03;5048685;28;20037;-84
2022/03/30 01:27:08;;;;;;;35.58;15.15;;;;;;;5.58;75.35;100651.19;5034670;28;20067;-86
2022/03/30 01:32:25;;;;;;;28.38;12.65;;;;;;;5.47;75.87;100650.91;5038876;28;20462;-86
2022/03/30 01:34:51;;;;;;;32.30;13.75;;;;;;;5.42;76.10;100647.59;5028168;28;20063;-87
2022/03/30 01:37:16;;;;;;;38.58;14.75;;;;;;;5.40;76.11;100657.56;5039985;28;20033;-87
2022/03/30 01:39:42;;;;;;;27.90;12.75;;;;;;;5.35;76.44;100655.13;5032115;28;20029;-83
2022/03/30 01:42:09;;;;;;;35.28;15.80;;;;;;;5.29;77.01;100649.19;5026923;28;20083;-86
2022/03/30 01:44:36;;;;;;;31.13;12.90;;;;;;;5.24;77.08;100652.16;5032109;28;20132;-85
2022/03/30 01:47:01;;;;;;;33.13;14.50;;;;;;;5.21;77.12;100654.13;5029352;28;20160;-84
2022/03/30 01:49:27;;;;;;;33.67;13.77;;;;;;;5.19;76.89;100656.91;5019196;28;20590;-84
2022/03/30 01:51:54;;;;;;;38.95;14.98;;;;;;;5.16;77.08;100653.50;5036634;28;20120;-83
2022/03/30 01:54:22;;;;;;;32.65;13.48;;;;;;;5.10;77.50;100644.78;5044137;28;20028;-84
2022/03/30 01:56:49;;;;;;;34.65;13.85;;;;;;;5.10;77.24;100643.91;5047263;28;20111;-86
2022/03/30 01:59:14;;;;;;;38.47;15.05;;;;;;;5.06;77.42;100645.03;5042033;28;20032;-85
2022/03/30 02:01:41;;;;;;;36.55;14.07;;;;;;;5.03;77.34;100637.97;5023739;28;20135;-85
2022/03/30 02:04:06;;;;;;;35.65;14.23;;;;;;;5.02;77.95;100632.66;5042632;28;20131;-86
2022/03/30 02:06:33;;;;;;;37.60;14.15;;;;;;;4.97;78.16;100630.22;5029844;28;20549;-87
2022/03/30 02:08:58;;;;;;;29.05;13.88;;;;;;;4.95;78.27;100639.34;5042176;28;20096;-85
2022/03/30 02:11:25;;;;;;;39.47;15.25;;;;;;;4.86;78.18;100614.63;5021684;28;20029;-84
2022/03/30 02:13:50;;;;;;;32.05;14.45;;;;;;;4.82;78.40;100617.56;5036475;28;20627;-85
2022/03/30 02:16:16;;;;;;;31.50;13.82;;;;;;;4.80;78.55;100623.03;5044056;28;20037;-87
2022/03/30 02:18:41;;;;;;;36.63;14.27;;;;;;;4.78;78.54;100629.44;5035828;28;20040;-87
2022/03/30 02:21:07;;;;;;;41.25;14.35;;;;;;;4.76;78.97;100623.28;5028385;28;20111;-86
2022/03/30 02:23:32;;;;;;;38.40;14.65;;;;;;;4.75;78.60;100624.19;5032437;28;20056;-86
2022/03/30 02:25:58;;;;;;;43.85;14.20;;;;;;;4.71;78.52;100606.44;5042295;28;20032;-84
2022/03/30 02:28:23;;;;;;;35.95;13.90;;;;;;;4.69;78.68;100606.53;5023422;28;20088;-85
2022/03/30 02:30:48;;;;;;;44.10;16.17;;;;;;;4.67;78.75;100600.38;5031986;28;20386;-85
2022/03/30 02:33:14;;;;;;;42.95;14.93;;;;;;;4.60;78.54;100589.00;5041643;28;20040;-86
2022/03/30 02:35:39;;;;;;;37.38;13.90;;;;;;;4.63;78.64;100596.09;5040382;28;20032;-85
2022/03/30 02:38:04;;;;;;;46.25;14.55;;;;;;;4.62;79.15;100591.66;5048581;28;20135;-84
2022/03/30 02:40:30;;;;;;;37.65;14.07;;;;;;;4.59;79.20;100589.09;5031832;28;20159;-84
2022/03/30 02:42:55;;;;;;;39.75;13.10;;;;;;;4.56;79.26;100587.44;5046768;28;20029;-85
2022/03/30 02:45:21;;;;;;;43.05;14.48;;;;;;;4.54;79.01;100583.09;5046039;28;20021;-84
2022/03/30 02:50:31;;;;;;;40.50;14.45;;;;;;;4.51;79.56;100578.72;5045728;28;20506;-86
2022/03/30 02:52:56;;;;;;;33.28;15.30;;;;;;;4.48;79.32;100575.34;5043647;28;20045;-85
2022/03/30 02:55:21;;;;;;;33.50;13.30;;;;;;;4.47;79.45;100570.88;5044947;28;20033;-89
2022/03/30 02:57:47;;;;;;;35.97;14.13;;;;;;;4.43;79.15;100569.28;5046747;28;20036;-85
2022/03/30 03:00:15;;;;;;;29.63;14.35;;;;;;;4.46;79.38;100578.09;5030847;28;20033;-87
2022/03/30 03:02:41;;;;;;;31.40;13.68;;;;;;;4.44;79.97;100579.13;5033917;28;20033;-87
2022/03/30 03:05:07;;;;;;;36.40;14.43;;;;;;;4.42;79.74;100578.31;5029489;28;20048;-85
2022/03/30 03:07:32;;;;;;;28.98;14.23;;;;;;;4.38;79.83;100574.91;5047205;28;20127;-88
2022/03/30 03:09:58;;;;;;;38.80;14.23;;;;;;;4.35;79.69;100578.66;5046293;28;20488;-85
2022/03/30 03:12:23;;;;;;;37.78;14.60;;;;;;;4.29;79.86;100570.88;5046890;28;20456;-90
2022/03/30 03:14:48;;;;;;;27.27;13.98;;;;;;;4.30;79.69;100572.63;5030571;28;20380;-87
2022/03/30 03:17:14;;;;;;;39.55;16.00;;;;;;;4.27;79.77;100566.50;5047145;28;20111;-88
2022/03/30 03:19:41;;;;;;;38.08;13.55;;;;;;;4.27;79.95;100578.16;5045273;28;20021;-87
2022/03/30 03:22:06;;;;;;;36.55;14.95;;;;;;;4.23;80.11;100564.91;5031181;28;20040;-85
2022/03/30 03:24:32;;;;;;;34.95;14.07;;;;;;;4.24;79.84;100566.66;5030977;28;20113;-85
2022/03/30 03:26:57;;;;;;;29.63;13.52;;;;;;;4.17;80.71;100566.13;5046139;28;20453;-84
2022/03/30 03:29:22;;;;;;;33.40;13.07;;;;;;;4.16;80.66;100555.44;5043968;28;20922;-85
2022/03/30 03:31:48;;;;;;;33.13;13.15;;;;;;;4.14;80.38;100551.94;5036082;28;20163;-86
2022/03/30 03:34:13;;;;;;;35.05;13.52;;;;;;;4.14;80.63;100555.50;5024346;28;20045;-86
2022/03/30 03:36:39;;;;;;;34.13;13.70;;;;;;;4.12;80.75;100557.41;5031467;28;20029;-85
2022/03/30 03:39:04;;;;;;;36.35;14.90;;;;;;;4.09;80.65;100547.66;5046827;28;20543;-86
2022/03/30 03:41:30;;;;;;;35.45;14.38;;;;;;;4.05;80.53;100547.88;5048525;28;20040;-86
2022/03/30 03:43:55;;;;;;;39.00;14.90;;;;;;;3.97;80.66;100528.56;5045813;28;20037;-86
2022/03/30 03:46:21;;;;;;;39.25;13.57;;;;;;;3.97;80.80;100537.50;5046291;28;20040;-87
2022/03/30 03:48:46;;;;;;;33.03;15.10;;;;;;;3.96;81.07;100538.44;5045565;28;20033;-85
2022/03/30 03:51:11;;;;;;;41.17;14.20;;;;;;;3.89;80.84;100531.63;5057641;28;20068;-86
2022/03/30 03:53:37;;;;;;;31.75;13.88;;;;;;;3.87;80.43;100530.84;5046314;28;20500;-88
2022/03/30 03:56:03;;;;;;;32.33;13.13;;;;;;;3.92;80.89;100546.78;5039672;28;20042;-85
2022/03/30 03:58:29;;;;;;;34.60;14.13;;;;;;;3.80;80.82;100530.28;5042580;28;20372;-87
2022/03/30 04:00:54;;;;;;;38.50;14.65;;;;;;;3.81;80.98;100537.38;5046483;28;20029;-85
2022/03/30 04:03:20;;;;;;;44.03;16.23;;;;;;;3.75;80.96;100526.94;5045762;28;20048;-86
2022/03/30 04:05:45;;;;;;;37.38;13.98;;;;;;;3.77;80.58;100534.94;5035763;28;20033;-85
2022/03/30 04:08:10;;;;;;;32.85;12.70;;;;;;;3.76;80.48;100542.13;5046979;28;20037;-85
2022/03/30 04:10:36;;;;;;;38.70;13.48;;;;;;;3.75;80.87;100536.84;5028121;28;20039;-87
2022/03/30 04:13:06;;;;;;;30.85;14.25;;;;;;;3.67;80.84;100525.56;5043028;28;20057;-86
2022/03/30 04:15:31;;;;;;;35.47;13.90;;;;;;;3.63;80.99;100529.34;5023427;28;20116;-87
2022/03/30 04:17:57;;;;;;;41.50;15.25;;;;;;;3.59;80.83;100534.03;5023653;28;20602;-84
2022/03/30 04:20:23;;;;;;;33.55;14.13;;;;;;;3.63;81.06;100532.03;5044751;28;20444;-85
2022/03/30 04:22:48;;;;;;;37.92;14.65;;;;;;;3.55;81.56;100524.38;5047743;28;20029;-84
2022/03/30 04:25:14;;;;;;;39.00;15.77;;;;;;;3.55;81.98;100533.31;5045277;28;20048;-86
2022/03/30 04:27:44;;;;;;;36.35;13.93;;;;;;;3.51;81.02;100528.16;5049393;28;20033;-86
2022/03/30 04:30:10;;;;;;;34.25;14.23;;;;;;;3.47;81.47;100531.94;5028475;28;20040;-85
2022/03/30 04:32:36;;;;;;;40.72;13.68;;;;;;;3.45;81.98;100534.69;5042963;28;20369;-87
2022/03/30 04:35:01;;;;;;;42.95;15.05;;;;;;;3.38;81.73;100535.94;5034284;28;20033;-85
2022/03/30 04:37:26;;;;;;;34.70;13.68;;;;;;;3.31;82.27;100521.91;5025943;28;20463;-87
2022/03/30 04:39:52;;;;;;;30.80;14.77;;;;;;;3.31;82.21;100537.16;5042862;28;20075;-85
2022/03/30 04:42:20;;;;;;;34.83;14.40;;;;;;;3.20;82.60;100524.22;5030317;28;20108;-85
2022/03/30 04:44:45;;;;;;;36.20;14.55;;;;;;;3.18;82.93;100528.81;5031769;28;20037;-84
2022/03/30 04:47:11;;;;;;;43.35;15.00;;;;;;;3.16;83.11;100538.75;5029531;28;20041;-87
2022/03/30 04:49:36;;;;;;;31.25;14.43;;;;;;;3.14;83.12;100537.09;5040553;28;20090;-87
2022/03/30 04:52:01;;;;;;;43.65;15.18;;;;;;;3.11;83.32;100540.78;5046131;28;20041;-85
2022/03/30 04:54:27;;;;;;;38.10;14.68;;;;;;;3.08;83.61;100538.25;5046967;28;20033;-85
2022/03/30 04:56:53;;;;;;;46.72;14.77;;;;;;;3.06;83.76;100535.63;5028005;28;20071;-86
2022/03/30 04:59:19;;;;;;;42.03;14.20;;;;;;;3.01;83.04;100532.28;5029532;28;20136;-87
2022/03/30 05:01:44;;;;;;;37.13;13.82;;;;;;;2.95;83.50;100529.00;5025153;28;20041;-88
2022/03/30 05:04:10;;;;;;;38.10;13.45;;;;;;;2.93;83.58;100541.63;5031395;28;20438;-85
2022/03/30 05:06:35;;;;;;;36.85;14.65;;;;;;;2.90;84.01;100542.66;5033447;28;20044;-84
2022/03/30 05:09:01;;;;;;;38.00;14.57;;;;;;;2.86;84.14;100534.81;5049125;28;20036;-85
2022/03/30 05:11:26;;;;;;;38.60;15.07;;;;;;;2.89;84.41;100540.03;5048217;28;21197;-85
2022/03/30 05:13:51;;;;;;;39.50;15.30;;;;;;;2.78;84.04;100529.78;5047053;28;20116;-87
2022/03/30 05:16:17;;;;;;;37.78;13.75;;;;;;;2.79;83.96;100524.31;5049457;28;20128;-87
2022/03/30 05:18:42;;;;;;;40.20;13.68;;;;;;;2.79;84.66;100534.19;5044826;28;20017;-85
2022/03/30 05:21:07;;;;;;;38.35;15.77;;;;;;;2.76;85.00;100523.63;5032234;28;20029;-85
2022/03/30 05:23:36;;;;;;;35.75;14.73;;;;;;;2.72;84.87;100519.31;5030473;28;20032;-88
2022/03/30 05:26:02;;;;;;;37.22;14.65;;;;;;;2.71;84.50;100517.59;5029148;28;20032;-85
2022/03/30 05:28:28;;;;;;;45.53;16.17;;;;;;;2.71;84.77;100523.81;5044697;28;20491;-86
2022/03/30 05:30:53;;;;;;;36.60;13.43;;;;;;;2.68;84.48;100523.94;5026264;28;20033;-85
2022/03/30 05:33:18;;;;;;;44.50;15.00;;;;;;;2.67;84.56;100522.22;5022105;28;20032;-85
2022/03/30 05:35:44;;;;;;;38.75;15.82;;;;;;;2.66;84.63;100516.88;5034605;28;20098;-85
2022/03/30 05:38:09;;;;;;;39.35;16.33;;;;;;;2.69;84.68;100527.50;5046991;28;20017;-86
2022/03/30 05:40:34;;;;;;;43.08;14.13;;;;;;;2.68;84.88;100518.56;5030441;28;20035;-85
2022/03/30 05:43:00;;;;;;;42.40;14.30;;;;;;;2.65;84.23;100512.47;5044267;28;20072;-86
2022/03/30 05:45:25;;;;;;;41.97;13.68;;;;;;;2.71;84.18;100513.06;5038748;28;20488;-87
2022/03/30 05:47:50;;;;;;;40.15;14.77;;;;;;;2.78;84.91;100514.53;5046530;28;20075;-87
2022/03/30 05:50:16;;;;;;;39.55;13.88;;;;;;;2.83;84.91;100508.94;5026069;28;20037;-87
2022/03/30 05:52:41;;;;;;;39.05;16.50;;;;;;;2.95;84.58;100510.22;5045884;28;20878;-85
2022/03/30 05:55:09;;;;;;;35.72;14.38;;;;;;;3.04;84.10;100512.47;5046432;28;20098;-87
2022/03/30 05:57:35;;;;;;;34.92;15.20;;;;;;;3.13;83.54;100511.16;5033616;28;20120;-84
2022/03/30 06:00:00;;;;;;;33.80;13.25;;;;;;;3.20;83.36;100513.47;5045202;28;20025;-86
2022/03/30 06:02:25;;;;;;;38.30;14.80;;;;;;;3.20;82.92;100526.91;5042068;28;20082;-86
2022/03/30 06:04:53;;;;;;;34.90;14.57;;;;;;;3.13;83.58;100519.22;5042181;28;20033;-85
2022/03/30 06:07:18;;;;;;;38.50;14.32;;;;;;;3.14;84.06;100521.84;5028365;28;20052;-89
2022/03/30 06:09:44;;;;;;;39.85;14.25;;;;;;;3.15;83.30;100522.72;5043081;28;20037;-87
2022/03/30 06:12:11;;;;;;;37.35;14.57;;;;;;;3.15;83.63;100520.88;5027668;28;20033;-86
2022/03/30 06:14:37;;;;;;;39.47;13.75;;;;;;;3.19;83.58;100530.56;5027471;28;20480;-85
2022/03/30 06:17:05;;;;;;;44.72;16.23;;;;;;;3.18;83.43;100538.69;5026109;28;20053;-86
2022/03/30 06:19:32;;;;;;;43.85;14.77;;;;;;;3.21;83.59;100536.72;5011863;28;20041;-87
2022/03/30 06:21:57;;;;;;;46.17;14.52;;;;;;;3.26;83.72;100541.88;5038507;28;20068;-85
2022/03/30 06:24:23;;;;;;;46.90;16.35;;;;;;;3.27;83.65;100538.25;5042857;28;20025;-86
2022/03/30 06:26:48;;;;;;;43.03;15.55;;;;;;;3.33;83.83;100535.28;5043288;28;20044;-85
2022/03/30 06:29:14;;;;;;;40.50;14.82;;;;;;;3.44;83.50;100529.38;5043903;28;20583;-85
2022/03/30 06:31:40;;;;;;;39.67;15.77;;;;;;;3.64;82.85;100531.09;5036350;28;20197;-87
2022/03/30 06:34:05;;;;;;;42.55;16.05;;;;;;;4.03;82.27;100525.56;5043951;28;20033;-86
2022/03/30 06:36:33;;;;;;;60.92;16.52;;;;;;;4.22;80.99;100525.50;5047186;28;20083;-85
2022/03/30 06:38:59;;;;;;;41.67;16.13;;;;;;;4.35;80.18;100516.72;5024700;28;20040;-84
2022/03/30 06:41:25;;;;;;;38.58;14.25;;;;;;;4.50;79.50;100506.06;5029984;28;20080;-85
2022/03/30 06:43:51;;;;;;;39.85;13.80;;;;;;;4.76;79.34;100526.25;5046644;28;20033;-86
2022/03/30 06:46:18;;;;;;;33.92;13.70;;;;;;;4.85;79.06;100523.94;5048579;28;20082;-85
2022/03/30 06:48:45;;;;;;;39.38;15.15;;;;;;;5.06;78.43;100526.41;5029342;28;20043;-85
2022/03/30 06:51:11;;;;;;;53.33;13.45;;;;;;;5.54;76.74;100521.91;5030940;28;20135;-87
2022/03/30 06:53:36;;;;;;;37.95;15.25;;;;;;;6.03;75.71;100521.84;5030032;28;20095;-87
2022/03/30 06:56:02;;;;;;;40.97;13.80;;;;;;;6.79;72.72;100529.84;5050515;28;20037;-87
2022/03/30 06:58:27;;;;;;;40.80;13.98;;;;;;;7.33;71.10;100528.19;5028353;28;20040;-87
2022/03/30 07:00:53;;;;;;;43.47;14.73;;;;;;;7.35;69.86;100517.28;5046633;28;20040;-85
2022/03/30 07:03:19;;;;;;;31.77;13.52;;;;;;;7.22;70.73;100519.88;5036683;28;20029;-83
2022/03/30 07:05:44;;;;;;;32.80;13.95;;;;;;;7.24;70.28;100523.38;5030038;28;20492;-84
2022/03/30 07:10:54;;;;;;;39.28;14.32;;;;;;;7.06;71.17;100511.88;5047947;28;20041;-85
2022/03/30 07:13:22;;;;;;;28.48;12.90;;;;;;;7.47;69.44;100518.34;5029130;28;20558;-85
2022/03/30 07:15:47;;;;;;;38.95;12.90;;;;;;;7.58;69.74;100518.50;5044714;28;20029;-84
2022/03/30 07:18:13;;;;;;;43.33;12.25;;;;;;;7.85;67.38;100516.66;5045292;28;20151;-86
2022/03/30 07:20:38;;;;;;;35.42;13.70;;;;;;;7.85;68.50;100511.25;5042924;28;20045;-84
2022/03/30 07:23:04;;;;;;;38.03;13.60;;;;;;;7.93;67.34;100510.75;5029752;28;20040;-87
2022/03/30 07:25:30;;;;;;;30.08;11.48;;;;;;;7.91;68.48;100523.50;5047520;28;20037;-84
2022/03/30 07:27:58;;;;;;;38.40;13.43;;;;;;;7.95;68.12;100519.63;5046346;28;20041;-85
2022/03/30 07:30:24;;;;;;;32.42;13.85;;;;;;;8.27;68.72;100522.88;5045641;28;20041;-85
2022/03/30 07:32:51;;;;;;;38.05;14.65;;;;;;;8.41;66.02;100508.41;5045060;28;20391;-89
2022/03/30 07:35:18;;;;;;;32.75;13.07;;;;;;;8.11;66.99;100511.34;5034869;28;20040;-85
2022/03/30 07:37:44;;;;;;;32.97;15.15;;;;;;;7.87;67.35;100517.44;5039518;28;20077;-84
2022/03/30 07:40:12;;;;;;;34.17;13.45;;;;;;;7.89;68.15;100514.63;5045726;28;20040;-85
2022/03/30 07:42:39;;;;;;;35.05;15.48;;;;;;;8.03;67.13;100514.56;5029647;28;20353;-85
2022/03/30 07:45:05;;;;;;;30.02;13.60;;;;;;;8.12;66.93;100515.81;5028710;28;20041;-87
2022/03/30 07:47:32;;;;;;;34.35;13.30;;;;;;;8.32;67.47;100511.72;5049075;28;20109;-85
2022/03/30 07:49:59;;;;;;;33.35;12.98;;;;;;;8.33;65.71;100495.34;5027955;28;20067;-85
2022/03/30 07:52:24;;;;;;;25.67;12.13;;;;;;;8.31;66.17;100516.28;5029654;28;20125;-84
2022/03/30 07:54:50;;;;;;;36.53;13.77;;;;;;;8.28;67.95;100516.47;5028847;28;20520;-88
2022/03/30 07:57:15;;;;;;;29.75;13.63;;;;;;;8.35;68.09;100511.53;5045440;28;20373;-86
2022/03/30 07:59:41;;;;;;;33.63;13.02;;;;;;;8.31;65.59;100510.88;5045477;28;20025;-87
2022/03/30 08:02:08;;;;;;;36.45;14.27;;;;;;;8.24;66.89;100516.78;5045816;28;20143;-85
2022/03/30 08:04:33;;;;;;;33.13;13.38;;;;;;;8.23;66.78;100520.50;5043822;28;20397;-85
2022/03/30 08:06:58;;;;;;;23.70;11.55;;;;;;;7.97;67.15;100530.34;5046139;28;20059;-84
2022/03/30 08:09:24;;;;;;;36.63;13.40;;;;;;;7.82;68.48;100516.88;5028947;28;20036;-87
2022/03/30 08:11:50;;;;;;;26.85;12.23;;;;;;;7.73;67.68;100514.75;5045966;28;20029;-88
2022/03/30 08:14:15;;;;;;;40.00;13.32;;;;;;;7.73;67.97;100522.88;5044425;28;20052;-85
2022/03/30 08:16:41;;;;;;;33.85;12.82;;;;;;;7.57;67.18;100522.16;5045935;28;20029;-87
2022/03/30 08:19:07;;;;;;;35.03;12.95;;;;;;;7.45;68.91;100523.81;5031580;28;20028;-87
2022/03/30 08:24:17;;;;;;;32.30;12.90;;;;;;;7.71;67.56;100532.97;5050109;28;20052;-85
2022/03/30 08:26:43;;;;;;;28.25;12.82;;;;;;;7.91;67.80;100524.38;5050136;28;20028;-85
2022/03/30 08:29:10;;;;;;;29.13;12.52;;;;;;;8.07;67.64;100515.25;5049482;28;20052;-84
2022/03/30 08:31:35;;;;;;;28.25;10.88;;;;;;;8.23;65.23;100529.47;5044715;28;20214;-89
2022/03/30 08:34:01;;;;;;;32.95;13.98;;;;;;;8.17;66.76;100524.50;5031930;28;20087;-85
2022/03/30 08:36:31;;;;;;;34.15;14.63;;;;;;;8.14;66.36;100516.56;5044590;28;20040;-84
2022/03/30 08:38:57;;;;;;;31.42;13.65;;;;;;;8.21;66.57;100522.41;5056271;28;20033;-89
2022/03/30 08:41:23;;;;;;;28.95;12.80;;;;;;;8.24;67.33;100517.66;5046554;28;20063;-85
2022/03/30 08:43:49;;;;;;;30.58;13.43;;;;;;;8.31;67.20;100500.03;5025659;28;20029;-85
2022/03/30 08:46:14;;;;;;;23.48;13.07;;;;;;;8.49;67.37;100508.78;5029302;28;20025;-85
2022/03/30 08:48:40;;;;;;;29.60;13.15;;;;;;;8.52;67.73;100504.97;5047227;28;20467;-89
2022/03/30 08:51:07;;;;;;;36.08;12.10;;;;;;;8.67;67.40;100504.78;5024119;28;20028;-88
2022/03/30 08:53:32;;;;;;;25.35;12.23;;;;;;;8.71;67.14;100502.69;5020371;28;20040;-87
2022/03/30 08:55:57;;;;;;;27.98;11.15;;;;;;;8.74;65.13;100499.78;5035018;28;20124;-85
2022/03/30 08:58:23;;;;;;;26.05;11.02;;;;;;;8.75;64.49;100495.22;5043648;28;20082;-87
2022/03/30 09:00:51;;;;;;;31.73;13.50;;;;;;;8.72;65.45;100503.56;5027823;28;20040;-85
2022/03/30 09:03:17;;;;;;;24.67;11.40;;;;;;;8.70;64.84;100503.69;5027250;28;20028;-89
2022/03/30 09:05:42;;;;;;;26.33;12.60;;;;;;;8.66;65.42;100491.31;5043704;28;20057;-86
2022/03/30 09:08:21;;;;;;;31.40;13.15;;;;;;;8.88;65.70;100494.25;5046000;28;20111;-85
2022/03/30 09:10:51;;;;;;;25.58;11.00;;;;;;;9.11;64.42;100503.44;5056754;28;20104;-85
2022/03/30 09:13:17;;;;;;;27.33;12.15;;;;;;;9.18;64.41;100488.44;5040027;28;20033;-88
2022/03/30 09:15:44;;;;;;;23.90;10.77;;;;;;;9.27;63.55;100505.91;5030923;28;20029;-85
2022/03/30 09:18:11;;;;;;;30.00;12.80;;;;;;;9.11;64.22;100487.16;5044345;28;20029;-84
2022/03/30 09:20:39;;;;;;;25.35;11.68;;;;;;;9.09;64.34;100491.84;5046593;28;20045;-84
2022/03/30 09:23:07;;;;;;;32.95;13.63;;;;;;;9.28;64.78;100493.22;5046015;28;20033;-85
2022/03/30 09:25:34;;;;;;;31.52;14.65;;;;;;;9.50;64.39;100485.22;5032633;28;20029;-84
2022/03/30 09:28:01;;;;;;;29.10;12.25;;;;;;;9.59;62.88;100480.97;5045239;28;20057;-89
2022/03/30 09:30:28;;;;;;;21.20;11.40;;;;;;;9.71;62.78;100482.78;5030507;28;20135;-87
2022/03/30 09:32:58;;;;;;;26.35;13.25;;;;;;;9.87;61.89;100474.34;5048458;28;20124;-87
2022/03/30 09:35:28;;;;;;;29.38;13.40;;;;;;;10.01;62.89;100470.56;5029654;28;20111;-87
2022/03/30 09:38:10;;;;;;;25.13;11.80;;;;;;;10.04;62.00;100464.91;5034528;28;20075;-86
2022/03/30 09:40:45;;;;;;;22.95;10.70;;;;;;;10.19;60.44;100474.59;5023348;28;20140;-90
2022/03/30 09:43:14;;;;;;;26.02;11.80;;;;;;;10.00;61.63;100468.84;5047761;28;20032;-86
2022/03/30 09:45:40;;;;;;;23.13;11.10;;;;;;;9.81;61.71;100469.38;5026991;28;20033;-84
2022/03/30 09:48:26;;;;;;;26.42;11.95;;;;;;;9.59;62.14;100470.09;5046571;28;20044;-85
2022/03/30 09:50:53;;;;;;;24.23;11.75;;;;;;;9.34;61.91;100460.22;5027605;28;20033;-85
2022/03/30 09:53:23;;;;;;;25.08;11.38;;;;;;;9.49;61.91;100466.34;5026305;28;20070;-85
2022/03/30 09:55:56;;;;;;;26.48;11.98;;;;;;;9.39;62.00;100458.00;5046487;28;20132;-85
2022/03/30 09:58:22;;;;;;;;;;;;;;;9.34;62.67;100461.06;5045545;28;20032;-86
2022/03/30 10:01:09;;;;;;;30.13;11.88;;;;;;;9.56;62.69;100454.94;5040600;28;19920;-84
2022/03/30 10:03:42;;;;;;;31.75;14.10;;;;;;;9.71;62.57;100456.50;5040210;28;20040;-86
2022/03/30 10:06:09;;;;;;;23.52;12.10;;;;;;;9.95;62.04;100453.75;5038567;28;20029;-85
2022/03/30 10:08:34;;;;;;;21.08;11.75;;;;;;;10.03;60.38;100444.16;5047336;28;20037;-85
2022/03/30 10:11:00;;;;;;;29.33;13.57;;;;;;;10.11;60.19;100444.41;5047162;28;20109;-89
2022/03/30 10:13:25;;;;;;;26.83;13.27;;;;;;;10.12;61.58;100440.75;5043860;28;20068;-86
2022/03/30 10:15:52;;;;;;;25.95;11.77;;;;;;;10.22;61.63;100445.34;5022335;28;20029;-89
2022/03/30 10:18:19;;;;;;;27.40;12.32;;;;;;;10.42;60.49;100449.25;5022931;28;20036;-88
2022/03/30 10:20:47;;;;;;;24.65;10.75;;;;;;;10.56;59.42;100447.31;5029157;28;20079;-84
2022/03/30 10:23:19;;;;;;;21.65;10.77;;;;;;;10.48;58.06;100446.03;5047859;28;20033;-87
2022/03/30 10:25:51;;;;;;;24.17;11.75;;;;;;;10.54;59.51;100436.56;5047745;28;20468;-86
2022/03/30 10:28:30;;;;;;;23.88;10.95;;;;;;;10.72;59.89;100434.22;5046616;28;20032;-85
2022/03/30 10:30:57;;;;;;;25.95;13.63;;;;;;;11.07;58.07;100428.66;5046300;28;20036;-88
2022/03/30 10:33:32;;;;;;;27.20;12.07;;;;;;;11.21;57.39;100428.41;5041700;28;20059;-86
2022/03/30 10:35:59;;;;;;;26.92;13.00;;;;;;;11.52;58.63;100428.59;5036146;28;20053;-85
2022/03/30 10:38:25;;;;;;;23.80;11.70;;;;;;;11.64;55.58;100427.56;5037740;28;20087;-86
2022/03/30 10:41:06;;;;;;;29.27;12.13;;;;;;;11.54;56.94;100429.34;5055238;28;20435;-89
2022/03/30 10:43:31;;;;;;;26.02;11.32;;;;;;;11.55;54.68;100414.72;5054987;28;20041;-85
2022/03/30 10:46:02;;;;;;;24.52;11.20;;;;;;;11.71;55.18;100422.47;5040325;28;20087;-85
2022/03/30 10:48:34;;;;;;;29.90;12.40;;;;;;;11.68;56.08;100406.38;5034763;28;20114;-85
2022/03/30 10:51:15;;;;;;;26.42;13.65;;;;;;;11.64;55.13;100402.19;5040652;28;20071;-88
2022/03/30 10:53:50;;;;;;;24.52;10.95;;;;;;;11.43;56.23;100403.00;5043397;28;20029;-87
2022/03/30 10:56:18;;;;;;;24.23;11.90;;;;;;;11.41;56.90;100407.69;5021213;28;20031;-87
2022/03/30 10:58:49;;;;;;;23.25;11.68;;;;;;;11.43;56.65;100400.28;5021766;28;20642;-86
2022/03/30 11:01:27;;;;;;;23.00;10.35;;;;;;;11.45;54.71;100397.41;5043218;28;20029;-86
2022/03/30 11:03:58;;;;;;;23.23;11.10;;;;;;;11.43;55.29;100400.28;5058066;28;20037;-87
2022/03/30 11:06:24;;;;;;;21.73;11.48;;;;;;;11.60;54.80;100382.50;5040456;28;20095;-84
2022/03/30 11:08:51;;;;;;;24.33;11.52;;;;;;;11.90;56.36;100381.81;5043678;28;20036;-87
2022/03/30 11:11:30;;;;;;;27.85;11.35;;;;;;;12.12;56.17;100374.47;5038533;28;20396;-89
2022/03/30 11:14:32;;;;;;;19.75;10.00;;;;;;;12.10;54.07;100395.56;5040040;28;20068;-87
2022/03/30 11:17:04;;;;;;;24.55;10.65;;;;;;;12.05;54.52;100378.75;5042018;28;20041;-88
2022/03/30 11:19:49;;;;;;;21.77;10.52;;;;;;;12.63;54.33;100370.91;5041320;28;20033;-83
2022/03/30 11:22:36;;;;;;;24.77;11.00;;;;;;;13.07;52.94;100372.41;5038598;28;20025;-84
2022/03/30 11:25:19;;;;;;;24.83;13.82;;;;;;;12.87;52.74;100363.28;5037975;28;20032;-84
2022/03/30 11:27:57;;;;;;;;;;;;;;;12.93;53.96;100361.88;5047558;28;20152;-87